Logrono, Spain
Current Conditions -  °F | °C
As of 8:00 PM on Thursday 23 Oct 2014 (Local Time) from LELO Reporting Station
Clear Clear  
Wind Chill: 64°   Ceiling: Unl
Heat Index: 64°   Visibility: 6mi
Dew Point: 37°   Wind: 3mph
Humidity: 37%   Direction: 310°NW
Pressure: 30.18"   Gusts: NA
Location:  42.47°N, 2.45°W
Report Text: LELO 231800Z 31003KT 280V350 CAVOK 18/03 Q1022
Loading
Personal Weather Stations






























Interactive Weather Map
Tropical Storm Tracking
New forecast layout! Learn more

10-Day Weather Forecast

Advertisements
Track Severe Weather on mobile